sensor_id;sensor_type;location;lat;lon;timestamp;P1;durP1;ratioP1;P2;durP2;ratioP2
37231;SDS011;23125;48.156;15.954;2023-09-19T00:01:41;0.52;;;0.13;;
37231;SDS011;23125;48.156;15.954;2023-09-19T00:04:14;0.68;;;0.30;;
37231;SDS011;23125;48.156;15.954;2023-09-19T00:06:40;1.15;;;0.35;;
37231;SDS011;23125;48.156;15.954;2023-09-19T00:09:06;0.30;;;0.10;;
37231;SDS011;23125;48.156;15.954;2023-09-19T00:11:36;0.88;;;0.20;;
37231;SDS011;23125;48.156;15.954;2023-09-19T00:14:03;0.40;;;0.13;;
37231;SDS011;23125;48.156;15.954;2023-09-19T00:16:33;3.88;;;0.25;;
37231;SDS011;23125;48.156;15.954;2023-09-19T00:19:01;0.30;;;0.10;;
37231;SDS011;23125;48.156;15.954;2023-09-19T00:21:33;1.02;;;0.10;;
37231;SDS011;23125;48.156;15.954;2023-09-19T00:23:59;0.70;;;0.20;;
37231;SDS011;23125;48.156;15.954;2023-09-19T00:26:25;1.13;;;0.25;;
37231;SDS011;23125;48.156;15.954;2023-09-19T00:28:54;0.20;;;0.10;;
37231;SDS011;23125;48.156;15.954;2023-09-19T00:31:19;1.02;;;0.22;;
37231;SDS011;23125;48.156;15.954;2023-09-19T00:33:50;0.88;;;0.28;;
37231;SDS011;23125;48.156;15.954;2023-09-19T00:36:17;1.92;;;0.30;;
37231;SDS011;23125;48.156;15.954;2023-09-19T00:38:43;2.13;;;0.20;;
37231;SDS011;23125;48.156;15.954;2023-09-19T00:41:11;1.75;;;0.20;;
37231;SDS011;23125;48.156;15.954;2023-09-19T00:43:38;0.60;;;0.22;;
37231;SDS011;23125;48.156;15.954;2023-09-19T00:46:05;0.40;;;0.20;;
37231;SDS011;23125;48.156;15.954;2023-09-19T00:48:32;1.95;;;0.40;;
37231;SDS011;23125;48.156;15.954;2023-09-19T00:51:06;0.68;;;0.20;;
37231;SDS011;23125;48.156;15.954;2023-09-19T00:53:32;1.92;;;0.40;;
37231;SDS011;23125;48.156;15.954;2023-09-19T00:55:59;1.38;;;0.30;;
37231;SDS011;23125;48.156;15.954;2023-09-19T00:58:26;1.95;;;0.30;;
37231;SDS011;23125;48.156;15.954;2023-09-19T01:00:57;1.52;;;0.40;;
37231;SDS011;23125;48.156;15.954;2023-09-19T01:03:23;4.38;;;0.32;;
37231;SDS011;23125;48.156;15.954;2023-09-19T01:05:49;0.80;;;0.20;;
37231;SDS011;23125;48.156;15.954;2023-09-19T01:08:15;2.88;;;0.47;;
37231;SDS011;23125;48.156;15.954;2023-09-19T01:11:17;1.48;;;0.30;;
37231;SDS011;23125;48.156;15.954;2023-09-19T01:13:43;1.88;;;0.40;;
37231;SDS011;23125;48.156;15.954;2023-09-19T01:16:47;2.92;;;0.47;;
37231;SDS011;23125;48.156;15.954;2023-09-19T01:30:24;4.22;;;0.40;;
37231;SDS011;23125;48.156;15.954;2023-09-19T01:32:58;1.48;;;0.30;;
37231;SDS011;23125;48.156;15.954;2023-09-19T01:35:25;1.70;;;0.40;;
37231;SDS011;23125;48.156;15.954;2023-09-19T01:37:51;2.08;;;0.22;;
37231;SDS011;23125;48.156;15.954;2023-09-19T01:40:19;1.38;;;0.40;;
37231;SDS011;23125;48.156;15.954;2023-09-19T01:48:16;1.88;;;0.50;;
37231;SDS011;23125;48.156;15.954;2023-09-19T01:51:07;1.85;;;0.65;;
37231;SDS011;23125;48.156;15.954;2023-09-19T01:56:21;2.65;;;0.40;;
37231;SDS011;23125;48.156;15.954;2023-09-19T01:58:53;1.25;;;0.30;;
37231;SDS011;23125;48.156;15.954;2023-09-19T02:01:24;4.32;;;0.50;;
37231;SDS011;23125;48.156;15.954;2023-09-19T02:03:52;0.95;;;0.30;;
37231;SDS011;23125;48.156;15.954;2023-09-19T02:06:19;1.08;;;0.10;;
37231;SDS011;23125;48.156;15.954;2023-09-19T02:08:46;1.10;;;0.30;;
37231;SDS011;23125;48.156;15.954;2023-09-19T02:11:12;2.63;;;0.80;;
37231;SDS011;23125;48.156;15.954;2023-09-19T02:13:39;3.38;;;1.70;;
37231;SDS011;23125;48.156;15.954;2023-09-19T02:16:06;1.90;;;1.30;;
37231;SDS011;23125;48.156;15.954;2023-09-19T02:18:34;2.22;;;1.88;;
37231;SDS011;23125;48.156;15.954;2023-09-19T02:21:00;3.83;;;3.40;;
37231;SDS011;23125;48.156;15.954;2023-09-19T02:23:27;2.75;;;2.50;;
37231;SDS011;23125;48.156;15.954;2023-09-19T02:25:55;3.67;;;2.78;;
37231;SDS011;23125;48.156;15.954;2023-09-19T02:28:29;1.85;;;1.65;;
37231;SDS011;23125;48.156;15.954;2023-09-19T02:31:00;2.40;;;1.30;;
37231;SDS011;23125;48.156;15.954;2023-09-19T02:33:26;2.75;;;1.50;;
37231;SDS011;23125;48.156;15.954;2023-09-19T02:35:56;7.30;;;1.30;;
37231;SDS011;23125;48.156;15.954;2023-09-19T02:38:25;1.70;;;0.90;;
37231;SDS011;23125;48.156;15.954;2023-09-19T02:40:52;1.00;;;0.50;;
37231;SDS011;23125;48.156;15.954;2023-09-19T02:43:20;0.75;;;0.45;;
37231;SDS011;23125;48.156;15.954;2023-09-19T02:45:47;2.30;;;0.40;;
37231;SDS011;23125;48.156;15.954;2023-09-19T02:48:19;1.55;;;0.32;;
37231;SDS011;23125;48.156;15.954;2023-09-19T02:50:45;0.88;;;0.20;;
37231;SDS011;23125;48.156;15.954;2023-09-19T02:53:14;0.85;;;0.17;;
37231;SDS011;23125;48.156;15.954;2023-09-19T02:55:40;1.40;;;0.32;;
37231;SDS011;23125;48.156;15.954;2023-09-19T02:58:06;0.88;;;0.22;;
37231;SDS011;23125;48.156;15.954;2023-09-19T03:00:33;1.33;;;0.17;;
37231;SDS011;23125;48.156;15.954;2023-09-19T03:03:01;0.50;;;0.32;;
37231;SDS011;23125;48.156;15.954;2023-09-19T03:05:30;1.23;;;0.40;;
37231;SDS011;23125;48.156;15.954;2023-09-19T03:07:56;1.70;;;0.30;;
37231;SDS011;23125;48.156;15.954;2023-09-19T03:10:25;2.63;;;0.45;;
37231;SDS011;23125;48.156;15.954;2023-09-19T03:12:51;1.40;;;0.40;;
37231;SDS011;23125;48.156;15.954;2023-09-19T03:15:17;0.73;;;0.30;;
37231;SDS011;23125;48.156;15.954;2023-09-19T03:17:46;0.85;;;0.30;;
37231;SDS011;23125;48.156;15.954;2023-09-19T03:20:13;0.93;;;0.20;;
37231;SDS011;23125;48.156;15.954;2023-09-19T03:22:43;1.88;;;0.57;;
37231;SDS011;23125;48.156;15.954;2023-09-19T03:25:09;1.00;;;0.50;;
37231;SDS011;23125;48.156;15.954;2023-09-19T03:27:37;1.35;;;0.20;;
37231;SDS011;23125;48.156;15.954;2023-09-19T03:30:04;2.58;;;0.50;;
37231;SDS011;23125;48.156;15.954;2023-09-19T03:32:37;1.00;;;0.30;;
37231;SDS011;23125;48.156;15.954;2023-09-19T03:35:09;0.82;;;0.20;;
37231;SDS011;23125;48.156;15.954;2023-09-19T03:37:40;2.13;;;0.50;;
37231;SDS011;23125;48.156;15.954;2023-09-19T03:40:07;2.30;;;0.43;;
37231;SDS011;23125;48.156;15.954;2023-09-19T03:42:40;1.25;;;0.32;;
37231;SDS011;23125;48.156;15.954;2023-09-19T03:45:07;0.82;;;0.30;;
37231;SDS011;23125;48.156;15.954;2023-09-19T03:47:40;3.08;;;0.40;;
37231;SDS011;23125;48.156;15.954;2023-09-19T03:50:06;0.95;;;0.40;;
37231;SDS011;23125;48.156;15.954;2023-09-19T03:52:33;0.60;;;0.38;;
37231;SDS011;23125;48.156;15.954;2023-09-19T03:54:59;0.52;;;0.22;;
37231;SDS011;23125;48.156;15.954;2023-09-19T03:57:27;1.85;;;0.70;;
37231;SDS011;23125;48.156;15.954;2023-09-19T03:59:53;1.17;;;0.40;;
37231;SDS011;23125;48.156;15.954;2023-09-19T04:02:20;1.33;;;0.40;;
37231;SDS011;23125;48.156;15.954;2023-09-19T04:04:49;1.30;;;0.47;;
37231;SDS011;23125;48.156;15.954;2023-09-19T04:07:16;3.45;;;0.70;;
37231;SDS011;23125;48.156;15.954;2023-09-19T04:09:44;1.23;;;0.45;;
37231;SDS011;23125;48.156;15.954;2023-09-19T04:12:11;1.85;;;0.70;;
37231;SDS011;23125;48.156;15.954;2023-09-19T04:14:37;1.92;;;0.63;;
37231;SDS011;23125;48.156;15.954;2023-09-19T04:17:04;1.63;;;0.63;;
37231;SDS011;23125;48.156;15.954;2023-09-19T04:19:30;2.28;;;0.73;;
37231;SDS011;23125;48.156;15.954;2023-09-19T04:21:56;1.33;;;0.70;;
37231;SDS011;23125;48.156;15.954;2023-09-19T04:24:22;1.42;;;0.70;;
37231;SDS011;23125;48.156;15.954;2023-09-19T04:26:48;2.88;;;0.63;;
37231;SDS011;23125;48.156;15.954;2023-09-19T04:29:14;1.77;;;0.85;;
37231;SDS011;23125;48.156;15.954;2023-09-19T04:31:40;1.50;;;0.60;;
37231;SDS011;23125;48.156;15.954;2023-09-19T04:34:09;2.35;;;0.70;;
37231;SDS011;23125;48.156;15.954;2023-09-19T04:36:35;1.75;;;0.70;;
37231;SDS011;23125;48.156;15.954;2023-09-19T04:39:02;2.92;;;0.90;;
37231;SDS011;23125;48.156;15.954;2023-09-19T04:41:32;2.95;;;1.25;;
37231;SDS011;23125;48.156;15.954;2023-09-19T04:43:59;0.82;;;0.57;;
37231;SDS011;23125;48.156;15.954;2023-09-19T04:46:25;2.58;;;1.00;;
37231;SDS011;23125;48.156;15.954;2023-09-19T04:48:51;1.35;;;0.68;;
37231;SDS011;23125;48.156;15.954;2023-09-19T04:51:17;2.63;;;0.70;;
37231;SDS011;23125;48.156;15.954;2023-09-19T04:53:44;1.55;;;0.80;;
37231;SDS011;23125;48.156;15.954;2023-09-19T04:56:09;2.30;;;0.95;;
37231;SDS011;23125;48.156;15.954;2023-09-19T04:58:35;2.63;;;1.40;;
37231;SDS011;23125;48.156;15.954;2023-09-19T05:01:01;2.00;;;1.20;;
37231;SDS011;23125;48.156;15.954;2023-09-19T05:03:28;1.15;;;0.65;;
37231;SDS011;23125;48.156;15.954;2023-09-19T05:05:54;1.83;;;0.95;;
37231;SDS011;23125;48.156;15.954;2023-09-19T05:08:20;2.45;;;0.82;;
37231;SDS011;23125;48.156;15.954;2023-09-19T05:10:47;1.77;;;0.90;;
37231;SDS011;23125;48.156;15.954;2023-09-19T05:13:14;3.28;;;0.85;;
37231;SDS011;23125;48.156;15.954;2023-09-19T05:15:40;3.42;;;1.00;;
37231;SDS011;23125;48.156;15.954;2023-09-19T05:18:06;1.90;;;0.80;;
37231;SDS011;23125;48.156;15.954;2023-09-19T05:20:32;1.95;;;0.80;;
37231;SDS011;23125;48.156;15.954;2023-09-19T05:23:03;1.80;;;1.08;;
37231;SDS011;23125;48.156;15.954;2023-09-19T05:25:36;2.03;;;0.85;;
37231;SDS011;23125;48.156;15.954;2023-09-19T05:28:03;3.63;;;0.80;;
37231;SDS011;23125;48.156;15.954;2023-09-19T05:30:34;2.13;;;0.82;;
37231;SDS011;23125;48.156;15.954;2023-09-19T05:33:08;2.28;;;0.80;;
37231;SDS011;23125;48.156;15.954;2023-09-19T05:35:34;3.30;;;1.10;;
37231;SDS011;23125;48.156;15.954;2023-09-19T05:38:07;3.35;;;0.80;;
37231;SDS011;23125;48.156;15.954;2023-09-19T05:40:38;2.97;;;0.80;;
37231;SDS011;23125;48.156;15.954;2023-09-19T05:43:07;3.33;;;1.08;;
37231;SDS011;23125;48.156;15.954;2023-09-19T05:45:34;3.08;;;1.00;;
37231;SDS011;23125;48.156;15.954;2023-09-19T05:48:08;2.65;;;1.00;;
37231;SDS011;23125;48.156;15.954;2023-09-19T05:50:36;2.25;;;0.85;;
37231;SDS011;23125;48.156;15.954;2023-09-19T05:53:03;2.30;;;0.80;;
37231;SDS011;23125;48.156;15.954;2023-09-19T05:55:32;2.50;;;0.98;;
37231;SDS011;23125;48.156;15.954;2023-09-19T05:57:58;4.13;;;0.98;;
37231;SDS011;23125;48.156;15.954;2023-09-19T06:00:25;2.88;;;1.00;;
37231;SDS011;23125;48.156;15.954;2023-09-19T06:05:23;4.10;;;0.90;;
37231;SDS011;23125;48.156;15.954;2023-09-19T06:10:18;2.35;;;0.80;;
37231;SDS011;23125;48.156;15.954;2023-09-19T06:12:46;2.03;;;0.80;;
37231;SDS011;23125;48.156;15.954;2023-09-19T06:15:12;2.80;;;1.00;;
37231;SDS011;23125;48.156;15.954;2023-09-19T06:17:55;1.98;;;0.85;;
37231;SDS011;23125;48.156;15.954;2023-09-19T06:20:22;1.60;;;0.95;;
37231;SDS011;23125;48.156;15.954;2023-09-19T06:22:49;2.35;;;0.90;;
37231;SDS011;23125;48.156;15.954;2023-09-19T06:25:16;1.33;;;1.00;;
37231;SDS011;23125;48.156;15.954;2023-09-19T06:27:46;3.10;;;0.80;;
37231;SDS011;23125;48.156;15.954;2023-09-19T06:30:12;1.15;;;0.80;;
37231;SDS011;23125;48.156;15.954;2023-09-19T06:32:42;1.67;;;0.80;;
37231;SDS011;23125;48.156;15.954;2023-09-19T06:35:10;2.00;;;1.00;;
37231;SDS011;23125;48.156;15.954;2023-09-19T06:37:37;2.17;;;0.70;;
37231;SDS011;23125;48.156;15.954;2023-09-19T06:40:07;1.92;;;0.70;;
37231;SDS011;23125;48.156;15.954;2023-09-19T06:42:45;4.10;;;0.95;;
37231;SDS011;23125;48.156;15.954;2023-09-19T06:45:15;1.83;;;0.70;;
37231;SDS011;23125;48.156;15.954;2023-09-19T06:47:50;1.38;;;0.80;;
37231;SDS011;23125;48.156;15.954;2023-09-19T06:50:17;2.80;;;0.80;;
37231;SDS011;23125;48.156;15.954;2023-09-19T06:52:45;1.83;;;0.80;;
37231;SDS011;23125;48.156;15.954;2023-09-19T06:55:15;2.72;;;0.98;;
37231;SDS011;23125;48.156;15.954;2023-09-19T06:57:42;1.70;;;0.70;;
37231;SDS011;23125;48.156;15.954;2023-09-19T07:00:09;2.47;;;0.70;;
37231;SDS011;23125;48.156;15.954;2023-09-19T07:03:06;1.45;;;0.90;;
37231;SDS011;23125;48.156;15.954;2023-09-19T07:05:36;1.77;;;0.77;;
37231;SDS011;23125;48.156;15.954;2023-09-19T07:08:08;1.73;;;0.82;;
37231;SDS011;23125;48.156;15.954;2023-09-19T07:10:38;1.95;;;0.90;;
37231;SDS011;23125;48.156;15.954;2023-09-19T07:13:06;2.83;;;1.08;;
37231;SDS011;23125;48.156;15.954;2023-09-19T07:15:36;1.95;;;1.10;;
37231;SDS011;23125;48.156;15.954;2023-09-19T07:18:11;3.28;;;0.70;;
37231;SDS011;23125;48.156;15.954;2023-09-19T07:20:40;1.50;;;0.70;;
37231;SDS011;23125;48.156;15.954;2023-09-19T07:23:17;1.75;;;0.80;;
37231;SDS011;23125;48.156;15.954;2023-09-19T07:25:44;2.55;;;1.05;;
37231;SDS011;23125;48.156;15.954;2023-09-19T07:28:11;2.67;;;1.23;;
37231;SDS011;23125;48.156;15.954;2023-09-19T07:30:37;3.22;;;0.90;;
37231;SDS011;23125;48.156;15.954;2023-09-19T07:33:05;4.28;;;1.55;;
37231;SDS011;23125;48.156;15.954;2023-09-19T07:35:31;2.92;;;1.10;;
37231;SDS011;23125;48.156;15.954;2023-09-19T07:37:58;2.28;;;0.90;;
37231;SDS011;23125;48.156;15.954;2023-09-19T07:40:26;3.92;;;0.80;;
37231;SDS011;23125;48.156;15.954;2023-09-19T07:42:54;3.05;;;1.27;;
37231;SDS011;23125;48.156;15.954;2023-09-19T07:45:21;3.45;;;0.93;;
37231;SDS011;23125;48.156;15.954;2023-09-19T07:47:48;3.00;;;1.33;;
37231;SDS011;23125;48.156;15.954;2023-09-19T07:50:16;1.90;;;1.05;;
37231;SDS011;23125;48.156;15.954;2023-09-19T07:52:46;3.10;;;0.90;;
37231;SDS011;23125;48.156;15.954;2023-09-19T07:55:13;2.28;;;0.90;;
37231;SDS011;23125;48.156;15.954;2023-09-19T07:57:45;3.92;;;1.05;;
37231;SDS011;23125;48.156;15.954;2023-09-19T08:02:41;1.98;;;0.88;;
37231;SDS011;23125;48.156;15.954;2023-09-19T08:05:08;1.80;;;0.98;;
37231;SDS011;23125;48.156;15.954;2023-09-19T08:07:38;2.40;;;0.95;;
37231;SDS011;23125;48.156;15.954;2023-09-19T08:10:06;2.45;;;1.15;;
37231;SDS011;23125;48.156;15.954;2023-09-19T08:12:33;2.00;;;1.02;;
37231;SDS011;23125;48.156;15.954;2023-09-19T08:15:02;2.30;;;1.13;;
37231;SDS011;23125;48.156;15.954;2023-09-19T08:17:28;2.40;;;1.05;;
37231;SDS011;23125;48.156;15.954;2023-09-19T08:19:59;2.78;;;1.20;;
37231;SDS011;23125;48.156;15.954;2023-09-19T08:22:25;2.67;;;1.38;;
37231;SDS011;23125;48.156;15.954;2023-09-19T08:24:52;1.88;;;1.08;;
37231;SDS011;23125;48.156;15.954;2023-09-19T08:27:18;2.05;;;0.85;;
37231;SDS011;23125;48.156;15.954;2023-09-19T08:29:47;2.55;;;1.00;;
37231;SDS011;23125;48.156;15.954;2023-09-19T08:32:13;2.22;;;0.80;;
37231;SDS011;23125;48.156;15.954;2023-09-19T08:34:39;1.65;;;0.98;;
37231;SDS011;23125;48.156;15.954;2023-09-19T08:37:05;2.78;;;1.17;;
37231;SDS011;23125;48.156;15.954;2023-09-19T08:39:31;1.95;;;0.80;;
37231;SDS011;23125;48.156;15.954;2023-09-19T08:41:58;5.50;;;1.60;;
37231;SDS011;23125;48.156;15.954;2023-09-19T08:44:25;2.85;;;0.70;;
37231;SDS011;23125;48.156;15.954;2023-09-19T08:47:09;3.25;;;1.00;;
37231;SDS011;23125;48.156;15.954;2023-09-19T08:49:59;1.25;;;0.70;;
37231;SDS011;23125;48.156;15.954;2023-09-19T08:52:32;1.88;;;1.00;;
37231;SDS011;23125;48.156;15.954;2023-09-19T08:55:06;2.38;;;1.00;;
37231;SDS011;23125;48.156;15.954;2023-09-19T08:57:36;2.35;;;1.00;;
37231;SDS011;23125;48.156;15.954;2023-09-19T09:00:07;1.98;;;0.90;;
37231;SDS011;23125;48.156;15.954;2023-09-19T09:02:40;3.53;;;0.95;;
37231;SDS011;23125;48.156;15.954;2023-09-19T09:05:08;4.20;;;1.10;;
37231;SDS011;23125;48.156;15.954;2023-09-19T09:10:05;2.30;;;0.85;;
37231;SDS011;23125;48.156;15.954;2023-09-19T09:12:33;2.53;;;1.08;;
37231;SDS011;23125;48.156;15.954;2023-09-19T09:15:02;1.92;;;0.85;;
37231;SDS011;23125;48.156;15.954;2023-09-19T09:17:29;1.13;;;0.63;;
37231;SDS011;23125;48.156;15.954;2023-09-19T09:19:56;2.45;;;0.80;;
37231;SDS011;23125;48.156;15.954;2023-09-19T09:22:24;3.42;;;1.15;;
37231;SDS011;23125;48.156;15.954;2023-09-19T09:29:47;2.28;;;1.15;;
37231;SDS011;23125;48.156;15.954;2023-09-19T09:32:34;1.45;;;1.10;;
37231;SDS011;23125;48.156;15.954;2023-09-19T09:35:03;2.50;;;1.02;;
37231;SDS011;23125;48.156;15.954;2023-09-19T09:37:36;3.33;;;1.00;;
37231;SDS011;23125;48.156;15.954;2023-09-19T09:40:04;2.40;;;1.65;;
37231;SDS011;23125;48.156;15.954;2023-09-19T09:42:57;1.42;;;0.80;;
37231;SDS011;23125;48.156;15.954;2023-09-19T09:45:25;1.40;;;0.85;;
37231;SDS011;23125;48.156;15.954;2023-09-19T09:47:54;4.03;;;0.75;;
37231;SDS011;23125;48.156;15.954;2023-09-19T09:50:27;2.25;;;1.27;;
37231;SDS011;23125;48.156;15.954;2023-09-19T09:53:22;2.67;;;1.20;;
37231;SDS011;23125;48.156;15.954;2023-09-19T09:56:00;2.63;;;1.20;;
37231;SDS011;23125;48.156;15.954;2023-09-19T09:58:34;1.42;;;0.90;;
37231;SDS011;23125;48.156;15.954;2023-09-19T10:01:02;2.38;;;1.13;;
37231;SDS011;23125;48.156;15.954;2023-09-19T10:03:40;3.55;;;1.45;;
37231;SDS011;23125;48.156;15.954;2023-09-19T10:06:18;2.13;;;0.90;;
37231;SDS011;23125;48.156;15.954;2023-09-19T10:09:06;2.53;;;0.98;;
37231;SDS011;23125;48.156;15.954;2023-09-19T10:11:43;1.75;;;0.90;;
37231;SDS011;23125;48.156;15.954;2023-09-19T10:14:11;1.73;;;0.80;;
37231;SDS011;23125;48.156;15.954;2023-09-19T10:16:45;1.60;;;0.80;;
37231;SDS011;23125;48.156;15.954;2023-09-19T10:19:16;1.55;;;0.80;;
37231;SDS011;23125;48.156;15.954;2023-09-19T10:21:50;0.95;;;0.60;;
37231;SDS011;23125;48.156;15.954;2023-09-19T10:24:18;2.88;;;0.88;;
37231;SDS011;23125;48.156;15.954;2023-09-19T10:26:47;1.50;;;1.03;;
37231;SDS011;23125;48.156;15.954;2023-09-19T10:29:15;2.08;;;1.10;;
37231;SDS011;23125;48.156;15.954;2023-09-19T10:31:44;2.47;;;1.00;;
37231;SDS011;23125;48.156;15.954;2023-09-19T10:34:16;1.75;;;1.00;;
37231;SDS011;23125;48.156;15.954;2023-09-19T10:36:45;1.15;;;0.80;;
37231;SDS011;23125;48.156;15.954;2023-09-19T10:39:15;2.10;;;0.90;;
37231;SDS011;23125;48.156;15.954;2023-09-19T10:41:49;1.58;;;0.70;;
37231;SDS011;23125;48.156;15.954;2023-09-19T10:44:24;1.60;;;0.70;;
37231;SDS011;23125;48.156;15.954;2023-09-19T10:46:53;1.75;;;1.02;;
37231;SDS011;23125;48.156;15.954;2023-09-19T10:49:21;2.33;;;0.93;;
37231;SDS011;23125;48.156;15.954;2023-09-19T10:51:49;3.47;;;1.33;;
37231;SDS011;23125;48.156;15.954;2023-09-19T10:54:21;1.30;;;0.65;;
37231;SDS011;23125;48.156;15.954;2023-09-19T10:56:51;2.58;;;0.82;;
37231;SDS011;23125;48.156;15.954;2023-09-19T10:59:20;2.05;;;0.80;;
37231;SDS011;23125;48.156;15.954;2023-09-19T11:01:53;1.55;;;0.93;;
37231;SDS011;23125;48.156;15.954;2023-09-19T11:04:33;2.05;;;0.80;;
37231;SDS011;23125;48.156;15.954;2023-09-19T11:09:46;5.43;;;0.98;;
37231;SDS011;23125;48.156;15.954;2023-09-19T11:15:00;2.13;;;0.70;;
37231;SDS011;23125;48.156;15.954;2023-09-19T11:17:33;1.60;;;0.80;;
37231;SDS011;23125;48.156;15.954;2023-09-19T11:30:41;1.58;;;1.00;;
37231;SDS011;23125;48.156;15.954;2023-09-19T11:33:26;2.38;;;0.90;;
37231;SDS011;23125;48.156;15.954;2023-09-19T11:46:13;2.63;;;0.95;;
37231;SDS011;23125;48.156;15.954;2023-09-19T11:48:42;1.40;;;0.70;;
37231;SDS011;23125;48.156;15.954;2023-09-19T11:51:14;2.65;;;0.90;;
37231;SDS011;23125;48.156;15.954;2023-09-19T11:53:51;4.97;;;1.13;;
37231;SDS011;23125;48.156;15.954;2023-09-19T11:56:18;1.27;;;0.90;;
37231;SDS011;23125;48.156;15.954;2023-09-19T11:58:48;4.22;;;1.20;;
37231;SDS011;23125;48.156;15.954;2023-09-19T12:01:23;2.45;;;0.65;;
37231;SDS011;23125;48.156;15.954;2023-09-19T12:03:55;1.10;;;0.70;;
37231;SDS011;23125;48.156;15.954;2023-09-19T12:06:23;1.55;;;0.85;;
37231;SDS011;23125;48.156;15.954;2023-09-19T12:08:55;1.38;;;0.82;;
37231;SDS011;23125;48.156;15.954;2023-09-19T12:11:29;1.95;;;1.08;;
37231;SDS011;23125;48.156;15.954;2023-09-19T12:13:58;1.45;;;0.93;;
37231;SDS011;23125;48.156;15.954;2023-09-19T12:16:29;2.78;;;1.10;;
37231;SDS011;23125;48.156;15.954;2023-09-19T12:18:56;2.80;;;1.13;;
37231;SDS011;23125;48.156;15.954;2023-09-19T12:21:24;3.63;;;0.90;;
37231;SDS011;23125;48.156;15.954;2023-09-19T12:23:59;1.27;;;0.80;;
37231;SDS011;23125;48.156;15.954;2023-09-19T12:26:45;2.25;;;0.98;;
37231;SDS011;23125;48.156;15.954;2023-09-19T12:29:17;2.85;;;0.93;;
37231;SDS011;23125;48.156;15.954;2023-09-19T12:31:54;3.95;;;2.47;;
37231;SDS011;23125;48.156;15.954;2023-09-19T12:34:23;1.33;;;0.82;;
37231;SDS011;23125;48.156;15.954;2023-09-19T12:37:05;1.83;;;1.00;;
37231;SDS011;23125;48.156;15.954;2023-09-19T12:39:40;4.10;;;1.05;;
37231;SDS011;23125;48.156;15.954;2023-09-19T12:42:25;1.05;;;0.52;;
37231;SDS011;23125;48.156;15.954;2023-09-19T12:47:27;3.88;;;1.02;;
37231;SDS011;23125;48.156;15.954;2023-09-19T12:55:30;2.75;;;0.80;;
37231;SDS011;23125;48.156;15.954;2023-09-19T13:00:35;0.65;;;0.55;;
37231;SDS011;23125;48.156;15.954;2023-09-19T13:06:05;1.52;;;0.70;;
37231;SDS011;23125;48.156;15.954;2023-09-19T13:08:34;2.15;;;0.93;;
37231;SDS011;23125;48.156;15.954;2023-09-19T13:13:46;2.10;;;0.77;;
37231;SDS011;23125;48.156;15.954;2023-09-19T13:16:19;2.72;;;1.38;;
37231;SDS011;23125;48.156;15.954;2023-09-19T13:21:27;1.10;;;0.90;;
37231;SDS011;23125;48.156;15.954;2023-09-19T13:24:21;1.80;;;0.63;;
37231;SDS011;23125;48.156;15.954;2023-09-19T13:26:51;2.15;;;0.50;;
37231;SDS011;23125;48.156;15.954;2023-09-19T13:29:17;2.38;;;0.70;;
37231;SDS011;23125;48.156;15.954;2023-09-19T13:31:50;1.35;;;0.90;;
37231;SDS011;23125;48.156;15.954;2023-09-19T13:34:21;2.33;;;0.70;;
37231;SDS011;23125;48.156;15.954;2023-09-19T13:36:47;1.60;;;0.68;;
37231;SDS011;23125;48.156;15.954;2023-09-19T13:39:14;1.00;;;0.60;;
37231;SDS011;23125;48.156;15.954;2023-09-19T13:41:41;1.52;;;0.77;;
37231;SDS011;23125;48.156;15.954;2023-09-19T13:44:11;1.00;;;0.60;;
37231;SDS011;23125;48.156;15.954;2023-09-19T13:46:38;2.50;;;0.77;;
37231;SDS011;23125;48.156;15.954;2023-09-19T13:49:04;1.33;;;0.70;;
37231;SDS011;23125;48.156;15.954;2023-09-19T13:51:32;2.53;;;1.00;;
37231;SDS011;23125;48.156;15.954;2023-09-19T13:53:58;2.20;;;1.20;;
37231;SDS011;23125;48.156;15.954;2023-09-19T13:56:26;1.50;;;0.73;;
37231;SDS011;23125;48.156;15.954;2023-09-19T13:58:57;2.08;;;0.80;;
37231;SDS011;23125;48.156;15.954;2023-09-19T14:01:23;2.03;;;0.70;;
37231;SDS011;23125;48.156;15.954;2023-09-19T14:03:49;2.30;;;0.77;;
37231;SDS011;23125;48.156;15.954;2023-09-19T14:06:16;1.15;;;0.75;;
37231;SDS011;23125;48.156;15.954;2023-09-19T14:08:44;0.77;;;0.40;;
37231;SDS011;23125;48.156;15.954;2023-09-19T14:11:13;5.65;;;1.08;;
37231;SDS011;23125;48.156;15.954;2023-09-19T14:13:41;1.25;;;0.82;;
37231;SDS011;23125;48.156;15.954;2023-09-19T14:16:12;1.20;;;0.75;;
37231;SDS011;23125;48.156;15.954;2023-09-19T14:18:38;1.35;;;0.60;;
37231;SDS011;23125;48.156;15.954;2023-09-19T14:21:04;1.27;;;0.55;;
37231;SDS011;23125;48.156;15.954;2023-09-19T14:23:36;2.55;;;0.90;;
37231;SDS011;23125;48.156;15.954;2023-09-19T14:26:03;1.27;;;0.82;;
37231;SDS011;23125;48.156;15.954;2023-09-19T14:28:31;1.30;;;0.60;;
37231;SDS011;23125;48.156;15.954;2023-09-19T14:31:03;1.40;;;0.57;;
37231;SDS011;23125;48.156;15.954;2023-09-19T14:33:33;0.90;;;0.60;;
37231;SDS011;23125;48.156;15.954;2023-09-19T14:36:02;1.23;;;0.45;;
37231;SDS011;23125;48.156;15.954;2023-09-19T14:38:35;1.92;;;0.77;;
37231;SDS011;23125;48.156;15.954;2023-09-19T14:41:03;1.55;;;0.60;;
37231;SDS011;23125;48.156;15.954;2023-09-19T14:43:30;1.55;;;0.60;;
37231;SDS011;23125;48.156;15.954;2023-09-19T14:46:07;1.60;;;0.50;;
37231;SDS011;23125;48.156;15.954;2023-09-19T14:48:34;1.35;;;0.70;;
37231;SDS011;23125;48.156;15.954;2023-09-19T14:51:04;0.80;;;0.47;;
37231;SDS011;23125;48.156;15.954;2023-09-19T14:53:32;3.28;;;0.57;;
37231;SDS011;23125;48.156;15.954;2023-09-19T14:56:01;2.08;;;0.77;;
37231;SDS011;23125;48.156;15.954;2023-09-19T14:58:32;2.05;;;1.00;;
37231;SDS011;23125;48.156;15.954;2023-09-19T15:01:08;2.25;;;1.00;;
37231;SDS011;23125;48.156;15.954;2023-09-19T15:03:41;1.25;;;0.63;;
37231;SDS011;23125;48.156;15.954;2023-09-19T15:06:11;1.38;;;0.60;;
37231;SDS011;23125;48.156;15.954;2023-09-19T15:08:43;1.02;;;0.52;;
37231;SDS011;23125;48.156;15.954;2023-09-19T15:11:13;2.00;;;0.70;;
37231;SDS011;23125;48.156;15.954;2023-09-19T15:13:42;1.58;;;0.77;;
37231;SDS011;23125;48.156;15.954;2023-09-19T15:16:09;0.82;;;0.43;;
37231;SDS011;23125;48.156;15.954;2023-09-19T15:18:37;0.68;;;0.50;;
37231;SDS011;23125;48.156;15.954;2023-09-19T15:21:07;2.03;;;0.52;;
37231;SDS011;23125;48.156;15.954;2023-09-19T15:23:34;0.80;;;0.43;;
37231;SDS011;23125;48.156;15.954;2023-09-19T15:26:04;1.42;;;0.60;;
37231;SDS011;23125;48.156;15.954;2023-09-19T15:28:32;2.20;;;0.63;;
37231;SDS011;23125;48.156;15.954;2023-09-19T15:30:59;1.58;;;0.50;;
37231;SDS011;23125;48.156;15.954;2023-09-19T15:33:26;1.08;;;0.47;;
37231;SDS011;23125;48.156;15.954;2023-09-19T15:38:29;1.48;;;0.47;;
37231;SDS011;23125;48.156;15.954;2023-09-19T15:40:57;1.05;;;0.50;;
37231;SDS011;23125;48.156;15.954;2023-09-19T15:43:24;2.45;;;0.50;;
37231;SDS011;23125;48.156;15.954;2023-09-19T15:45:50;2.17;;;0.40;;
37231;SDS011;23125;48.156;15.954;2023-09-19T15:48:16;0.77;;;0.40;;
37231;SDS011;23125;48.156;15.954;2023-09-19T15:50:42;0.98;;;0.50;;
37231;SDS011;23125;48.156;15.954;2023-09-19T15:53:10;1.00;;;0.40;;
37231;SDS011;23125;48.156;15.954;2023-09-19T15:55:40;1.23;;;0.50;;
37231;SDS011;23125;48.156;15.954;2023-09-19T15:58:07;1.35;;;0.40;;
37231;SDS011;23125;48.156;15.954;2023-09-19T16:00:33;1.88;;;0.40;;
37231;SDS011;23125;48.156;15.954;2023-09-19T16:03:02;1.23;;;0.52;;
37231;SDS011;23125;48.156;15.954;2023-09-19T16:05:34;1.15;;;0.40;;
37231;SDS011;23125;48.156;15.954;2023-09-19T16:08:05;2.60;;;0.70;;
37231;SDS011;23125;48.156;15.954;2023-09-19T16:10:36;1.88;;;0.60;;